sensor_id;sensor_type;location;lat;lon;timestamp;P1;durP1;ratioP1;P2;durP2;ratioP2
59310;SDS011;45078;51.654;21.250;2022-10-22T13:34:31;18.90;;;8.60;;
59310;SDS011;45078;51.654;21.250;2022-10-22T13:36:59;20.80;;;9.43;;
59310;SDS011;45078;51.654;21.250;2022-10-22T13:39:25;18.08;;;9.18;;
59310;SDS011;45078;51.654;21.250;2022-10-22T13:41:51;15.90;;;8.25;;
59310;SDS011;45078;51.654;21.250;2022-10-22T13:44:17;18.08;;;9.98;;
59310;SDS011;45078;51.654;21.250;2022-10-22T13:46:44;16.33;;;8.75;;
59310;SDS011;45078;51.654;21.250;2022-10-22T13:49:15;17.75;;;8.65;;
59310;SDS011;45078;51.654;21.250;2022-10-22T13:51:43;17.10;;;8.70;;
59310;SDS011;45078;51.654;21.250;2022-10-22T13:56:42;19.65;;;9.75;;
59310;SDS011;45078;51.654;21.250;2022-10-22T13:59:08;21.85;;;9.15;;
59310;SDS011;45078;51.654;21.250;2022-10-22T14:01:35;15.18;;;8.55;;
59310;SDS011;45078;51.654;21.250;2022-10-22T14:04:02;17.15;;;8.75;;
59310;SDS011;45078;51.654;21.250;2022-10-22T14:06:30;19.90;;;9.02;;
59310;SDS011;45078;51.654;21.250;2022-10-22T14:09:10;19.42;;;9.93;;
59310;SDS011;45078;51.654;21.250;2022-10-22T14:11:39;20.30;;;9.48;;
59310;SDS011;45078;51.654;21.250;2022-10-22T14:14:04;17.48;;;8.80;;
59310;SDS011;45078;51.654;21.250;2022-10-22T14:16:33;16.23;;;8.80;;
59310;SDS011;45078;51.654;21.250;2022-10-22T14:18:59;18.30;;;8.88;;
59310;SDS011;45078;51.654;21.250;2022-10-22T14:21:27;20.77;;;8.90;;
59310;SDS011;45078;51.654;21.250;2022-10-22T14:23:57;21.00;;;8.90;;
59310;SDS011;45078;51.654;21.250;2022-10-22T14:26:24;21.02;;;9.55;;
59310;SDS011;45078;51.654;21.250;2022-10-22T14:28:54;18.25;;;8.95;;
59310;SDS011;45078;51.654;21.250;2022-10-22T14:31:20;18.63;;;8.55;;
59310;SDS011;45078;51.654;21.250;2022-10-22T14:33:46;24.42;;;9.88;;
59310;SDS011;45078;51.654;21.250;2022-10-22T14:36:13;16.60;;;9.60;;
59310;SDS011;45078;51.654;21.250;2022-10-22T14:38:43;18.15;;;10.07;;
59310;SDS011;45078;51.654;21.250;2022-10-22T14:41:15;20.27;;;10.48;;
59310;SDS011;45078;51.654;21.250;2022-10-22T14:43:44;20.30;;;10.63;;
59310;SDS011;45078;51.654;21.250;2022-10-22T14:46:10;18.80;;;9.98;;
59310;SDS011;45078;51.654;21.250;2022-10-22T14:48:38;19.80;;;9.40;;
59310;SDS011;45078;51.654;21.250;2022-10-22T14:51:04;19.75;;;9.95;;
59310;SDS011;45078;51.654;21.250;2022-10-22T14:53:30;18.08;;;8.77;;
59310;SDS011;45078;51.654;21.250;2022-10-22T14:55:55;18.77;;;9.55;;
59310;SDS011;45078;51.654;21.250;2022-10-22T14:58:23;18.25;;;9.25;;
59310;SDS011;45078;51.654;21.250;2022-10-22T15:00:50;17.95;;;9.88;;
59310;SDS011;45078;51.654;21.250;2022-10-22T15:03:16;17.55;;;8.88;;
59310;SDS011;45078;51.654;21.250;2022-10-22T15:05:42;19.50;;;9.95;;
59310;SDS011;45078;51.654;21.250;2022-10-22T15:08:09;22.00;;;10.52;;
59310;SDS011;45078;51.654;21.250;2022-10-22T15:10:36;16.42;;;9.18;;
59310;SDS011;45078;51.654;21.250;2022-10-22T15:13:02;20.23;;;10.52;;
59310;SDS011;45078;51.654;21.250;2022-10-22T15:15:27;15.20;;;9.18;;
59310;SDS011;45078;51.654;21.250;2022-10-22T15:17:53;17.95;;;9.73;;
59310;SDS011;45078;51.654;21.250;2022-10-22T15:20:19;16.42;;;8.93;;
59310;SDS011;45078;51.654;21.250;2022-10-22T15:22:45;20.92;;;10.10;;
59310;SDS011;45078;51.654;21.250;2022-10-22T15:25:10;21.48;;;9.60;;
59310;SDS011;45078;51.654;21.250;2022-10-22T15:27:37;17.98;;;9.73;;
59310;SDS011;45078;51.654;21.250;2022-10-22T15:30:04;16.33;;;9.63;;
59310;SDS011;45078;51.654;21.250;2022-10-22T15:32:31;16.83;;;8.90;;
59310;SDS011;45078;51.654;21.250;2022-10-22T15:34:58;20.05;;;9.95;;
59310;SDS011;45078;51.654;21.250;2022-10-22T15:37:25;19.00;;;9.90;;
59310;SDS011;45078;51.654;21.250;2022-10-22T15:39:51;16.67;;;8.95;;
59310;SDS011;45078;51.654;21.250;2022-10-22T15:42:17;20.73;;;10.10;;
59310;SDS011;45078;51.654;21.250;2022-10-22T15:44:43;19.05;;;9.27;;
59310;SDS011;45078;51.654;21.250;2022-10-22T15:47:10;26.50;;;9.73;;
59310;SDS011;45078;51.654;21.250;2022-10-22T15:49:36;21.95;;;10.13;;
59310;SDS011;45078;51.654;21.250;2022-10-22T15:52:04;20.27;;;10.13;;
59310;SDS011;45078;51.654;21.250;2022-10-22T15:54:31;25.48;;;10.45;;
59310;SDS011;45078;51.654;21.250;2022-10-22T15:56:57;20.77;;;10.20;;
59310;SDS011;45078;51.654;21.250;2022-10-22T15:59:26;18.95;;;9.70;;
59310;SDS011;45078;51.654;21.250;2022-10-22T16:01:51;22.30;;;9.70;;
59310;SDS011;45078;51.654;21.250;2022-10-22T16:04:17;18.60;;;10.95;;
59310;SDS011;45078;51.654;21.250;2022-10-22T16:06:44;22.02;;;10.77;;
59310;SDS011;45078;51.654;21.250;2022-10-22T16:11:44;20.38;;;9.77;;
59310;SDS011;45078;51.654;21.250;2022-10-22T16:14:11;24.52;;;10.40;;
59310;SDS011;45078;51.654;21.250;2022-10-22T16:16:41;23.83;;;10.82;;
59310;SDS011;45078;51.654;21.250;2022-10-22T16:19:12;24.08;;;10.60;;
59310;SDS011;45078;51.654;21.250;2022-10-22T16:21:39;21.35;;;10.43;;
59310;SDS011;45078;51.654;21.250;2022-10-22T16:24:06;21.95;;;11.07;;
59310;SDS011;45078;51.654;21.250;2022-10-22T16:26:33;17.75;;;9.85;;
59310;SDS011;45078;51.654;21.250;2022-10-22T16:28:59;22.42;;;11.23;;
59310;SDS011;45078;51.654;21.250;2022-10-22T16:31:26;22.55;;;10.70;;
59310;SDS011;45078;51.654;21.250;2022-10-22T16:33:51;21.30;;;9.85;;
59310;SDS011;45078;51.654;21.250;2022-10-22T16:36:19;18.40;;;9.95;;
59310;SDS011;45078;51.654;21.250;2022-10-22T16:38:47;15.00;;;9.68;;
59310;SDS011;45078;51.654;21.250;2022-10-22T16:41:14;15.88;;;9.65;;
59310;SDS011;45078;51.654;21.250;2022-10-22T16:43:41;19.00;;;9.68;;
59310;SDS011;45078;51.654;21.250;2022-10-22T16:46:09;18.17;;;9.60;;
59310;SDS011;45078;51.654;21.250;2022-10-22T16:48:36;21.90;;;10.85;;
59310;SDS011;45078;51.654;21.250;2022-10-22T16:51:08;20.83;;;9.15;;
59310;SDS011;45078;51.654;21.250;2022-10-22T16:53:36;17.88;;;9.95;;
59310;SDS011;45078;51.654;21.250;2022-10-22T16:56:02;19.38;;;11.32;;
59310;SDS011;45078;51.654;21.250;2022-10-22T16:58:28;20.73;;;10.40;;
59310;SDS011;45078;51.654;21.250;2022-10-22T17:00:54;20.63;;;11.38;;
59310;SDS011;45078;51.654;21.250;2022-10-22T17:03:20;19.98;;;11.25;;
59310;SDS011;45078;51.654;21.250;2022-10-22T17:05:46;24.88;;;12.50;;
59310;SDS011;45078;51.654;21.250;2022-10-22T17:08:12;27.48;;;12.43;;
59310;SDS011;45078;51.654;21.250;2022-10-22T17:10:38;25.50;;;11.95;;
59310;SDS011;45078;51.654;21.250;2022-10-22T17:13:05;19.48;;;10.43;;
59310;SDS011;45078;51.654;21.250;2022-10-22T17:15:31;19.40;;;10.38;;
59310;SDS011;45078;51.654;21.250;2022-10-22T17:18:00;25.90;;;12.65;;
59310;SDS011;45078;51.654;21.250;2022-10-22T17:20:28;25.70;;;13.45;;
59310;SDS011;45078;51.654;21.250;2022-10-22T17:22:53;26.88;;;13.98;;
59310;SDS011;45078;51.654;21.250;2022-10-22T17:25:23;26.90;;;14.13;;
59310;SDS011;45078;51.654;21.250;2022-10-22T17:27:56;30.52;;;14.45;;
59310;SDS011;45078;51.654;21.250;2022-10-22T17:30:22;25.17;;;13.65;;
59310;SDS011;45078;51.654;21.250;2022-10-22T17:32:50;28.65;;;14.13;;
59310;SDS011;45078;51.654;21.250;2022-10-22T17:35:16;30.15;;;15.60;;
59310;SDS011;45078;51.654;21.250;2022-10-22T17:37:43;34.83;;;15.48;;
59310;SDS011;45078;51.654;21.250;2022-10-22T17:40:09;30.95;;;15.90;;
59310;SDS011;45078;51.654;21.250;2022-10-22T17:42:35;31.17;;;15.00;;
59310;SDS011;45078;51.654;21.250;2022-10-22T17:45:01;27.38;;;15.60;;
59310;SDS011;45078;51.654;21.250;2022-10-22T17:47:27;31.73;;;14.85;;
59310;SDS011;45078;51.654;21.250;2022-10-22T17:49:53;26.02;;;13.55;;
59310;SDS011;45078;51.654;21.250;2022-10-22T17:52:19;31.20;;;16.00;;
59310;SDS011;45078;51.654;21.250;2022-10-22T17:54:46;32.03;;;15.00;;
59310;SDS011;45078;51.654;21.250;2022-10-22T17:57:14;27.52;;;13.07;;
59310;SDS011;45078;51.654;21.250;2022-10-22T17:59:40;29.00;;;13.20;;
59310;SDS011;45078;51.654;21.250;2022-10-22T18:02:08;25.50;;;12.88;;
59310;SDS011;45078;51.654;21.250;2022-10-22T18:04:38;26.87;;;13.00;;
59310;SDS011;45078;51.654;21.250;2022-10-22T18:07:05;24.98;;;13.23;;
59310;SDS011;45078;51.654;21.250;2022-10-22T18:09:31;27.67;;;13.02;;
59310;SDS011;45078;51.654;21.250;2022-10-22T18:11:57;26.17;;;11.85;;
59310;SDS011;45078;51.654;21.250;2022-10-22T18:14:23;24.50;;;11.90;;
59310;SDS011;45078;51.654;21.250;2022-10-22T18:16:49;22.02;;;10.80;;
59310;SDS011;45078;51.654;21.250;2022-10-22T18:19:19;27.77;;;11.85;;
59310;SDS011;45078;51.654;21.250;2022-10-22T18:21:47;21.80;;;11.90;;
59310;SDS011;45078;51.654;21.250;2022-10-22T18:24:13;22.77;;;12.48;;
59310;SDS011;45078;51.654;21.250;2022-10-22T18:26:40;21.67;;;11.10;;
59310;SDS011;45078;51.654;21.250;2022-10-22T18:29:06;24.83;;;11.32;;
59310;SDS011;45078;51.654;21.250;2022-10-22T18:31:33;19.55;;;10.75;;
59310;SDS011;45078;51.654;21.250;2022-10-22T18:33:59;23.33;;;12.13;;
59310;SDS011;45078;51.654;21.250;2022-10-22T18:36:25;30.67;;;12.40;;
59310;SDS011;45078;51.654;21.250;2022-10-22T18:38:52;24.27;;;12.05;;
59310;SDS011;45078;51.654;21.250;2022-10-22T18:41:23;24.17;;;12.00;;
59310;SDS011;45078;51.654;21.250;2022-10-22T18:43:51;21.38;;;12.18;;
59310;SDS011;45078;51.654;21.250;2022-10-22T18:46:18;25.15;;;11.80;;
59310;SDS011;45078;51.654;21.250;2022-10-22T18:48:44;22.05;;;11.85;;
59310;SDS011;45078;51.654;21.250;2022-10-22T18:51:11;26.73;;;11.57;;
59310;SDS011;45078;51.654;21.250;2022-10-22T18:53:39;20.33;;;11.50;;
59310;SDS011;45078;51.654;21.250;2022-10-22T18:56:08;22.83;;;11.73;;
59310;SDS011;45078;51.654;21.250;2022-10-22T18:58:39;20.63;;;11.30;;
59310;SDS011;45078;51.654;21.250;2022-10-22T19:01:07;19.95;;;10.98;;
59310;SDS011;45078;51.654;21.250;2022-10-22T19:03:35;24.73;;;11.15;;
59310;SDS011;45078;51.654;21.250;2022-10-22T19:06:01;22.23;;;11.65;;
59310;SDS011;45078;51.654;21.250;2022-10-22T19:08:27;22.13;;;10.80;;
59310;SDS011;45078;51.654;21.250;2022-10-22T19:10:53;22.20;;;11.40;;
59310;SDS011;45078;51.654;21.250;2022-10-22T19:13:19;21.98;;;11.57;;
59310;SDS011;45078;51.654;21.250;2022-10-22T19:15:47;21.40;;;12.00;;
59310;SDS011;45078;51.654;21.250;2022-10-22T19:18:13;29.85;;;12.27;;
59310;SDS011;45078;51.654;21.250;2022-10-22T19:20:41;25.02;;;11.50;;
59310;SDS011;45078;51.654;21.250;2022-10-22T19:23:10;22.67;;;11.82;;
59310;SDS011;45078;51.654;21.250;2022-10-22T19:25:36;18.67;;;10.98;;
59310;SDS011;45078;51.654;21.250;2022-10-22T19:28:02;22.48;;;10.20;;
59310;SDS011;45078;51.654;21.250;2022-10-22T19:30:28;25.92;;;11.93;;
59310;SDS011;45078;51.654;21.250;2022-10-22T19:32:54;20.40;;;11.23;;
59310;SDS011;45078;51.654;21.250;2022-10-22T19:35:20;22.70;;;11.07;;
59310;SDS011;45078;51.654;21.250;2022-10-22T19:37:46;21.33;;;11.00;;
59310;SDS011;45078;51.654;21.250;2022-10-22T19:40:12;23.90;;;10.73;;
59310;SDS011;45078;51.654;21.250;2022-10-22T19:42:38;20.85;;;10.40;;
59310;SDS011;45078;51.654;21.250;2022-10-22T19:45:05;19.27;;;10.77;;
59310;SDS011;45078;51.654;21.250;2022-10-22T19:47:32;19.50;;;10.32;;
59310;SDS011;45078;51.654;21.250;2022-10-22T19:49:58;18.15;;;10.32;;
59310;SDS011;45078;51.654;21.250;2022-10-22T19:52:23;21.02;;;9.48;;
59310;SDS011;45078;51.654;21.250;2022-10-22T19:54:49;17.33;;;10.40;;
59310;SDS011;45078;51.654;21.250;2022-10-22T19:57:16;18.38;;;9.98;;
59310;SDS011;45078;51.654;21.250;2022-10-22T19:59:42;17.73;;;9.20;;
59310;SDS011;45078;51.654;21.250;2022-10-22T20:02:15;16.05;;;9.60;;
59310;SDS011;45078;51.654;21.250;2022-10-22T20:04:42;15.88;;;8.27;;
59310;SDS011;45078;51.654;21.250;2022-10-22T20:07:08;14.27;;;8.63;;
59310;SDS011;45078;51.654;21.250;2022-10-22T20:09:35;18.60;;;8.88;;
59310;SDS011;45078;51.654;21.250;2022-10-22T20:12:01;14.90;;;8.98;;
59310;SDS011;45078;51.654;21.250;2022-10-22T20:14:27;15.68;;;9.10;;
59310;SDS011;45078;51.654;21.250;2022-10-22T20:16:53;18.10;;;9.55;;
59310;SDS011;45078;51.654;21.250;2022-10-22T20:19:18;17.52;;;8.23;;
59310;SDS011;45078;51.654;21.250;2022-10-22T20:21:44;16.50;;;9.00;;
59310;SDS011;45078;51.654;21.250;2022-10-22T20:24:13;19.38;;;9.13;;
59310;SDS011;45078;51.654;21.250;2022-10-22T20:26:39;14.55;;;8.35;;
59310;SDS011;45078;51.654;21.250;2022-10-22T20:29:05;15.25;;;9.60;;
59310;SDS011;45078;51.654;21.250;2022-10-22T20:31:31;16.15;;;9.02;;
59310;SDS011;45078;51.654;21.250;2022-10-22T20:33:58;14.02;;;8.55;;
59310;SDS011;45078;51.654;21.250;2022-10-22T20:36:28;16.38;;;9.35;;
59310;SDS011;45078;51.654;21.250;2022-10-22T20:39:00;14.85;;;8.68;;
59310;SDS011;45078;51.654;21.250;2022-10-22T20:41:30;15.23;;;8.85;;
59310;SDS011;45078;51.654;21.250;2022-10-22T20:43:58;18.50;;;9.68;;
59310;SDS011;45078;51.654;21.250;2022-10-22T20:46:28;19.65;;;9.70;;
59310;SDS011;45078;51.654;21.250;2022-10-22T20:48:59;17.38;;;10.13;;
59310;SDS011;45078;51.654;21.250;2022-10-22T20:51:28;20.33;;;10.13;;
59310;SDS011;45078;51.654;21.250;2022-10-22T20:53:54;14.85;;;8.75;;
59310;SDS011;45078;51.654;21.250;2022-10-22T20:56:20;21.80;;;10.38;;
59310;SDS011;45078;51.654;21.250;2022-10-22T20:58:46;16.58;;;9.18;;
59310;SDS011;45078;51.654;21.250;2022-10-22T21:01:16;17.13;;;10.02;;
59310;SDS011;45078;51.654;21.250;2022-10-22T21:03:51;16.75;;;9.40;;
59310;SDS011;45078;51.654;21.250;2022-10-22T21:06:17;19.27;;;10.48;;
59310;SDS011;45078;51.654;21.250;2022-10-22T21:08:50;17.10;;;9.65;;
59310;SDS011;45078;51.654;21.250;2022-10-22T21:11:19;23.02;;;9.75;;
59310;SDS011;45078;51.654;21.250;2022-10-22T21:13:47;21.20;;;10.15;;
59310;SDS011;45078;51.654;21.250;2022-10-22T21:16:14;17.25;;;9.45;;
59310;SDS011;45078;51.654;21.250;2022-10-22T21:18:42;18.60;;;10.18;;
59310;SDS011;45078;51.654;21.250;2022-10-22T21:21:08;18.08;;;10.38;;
59310;SDS011;45078;51.654;21.250;2022-10-22T21:23:35;20.42;;;9.40;;
59310;SDS011;45078;51.654;21.250;2022-10-22T21:26:01;18.65;;;10.50;;
59310;SDS011;45078;51.654;21.250;2022-10-22T21:28:27;17.10;;;9.02;;
59310;SDS011;45078;51.654;21.250;2022-10-22T21:30:53;16.98;;;9.07;;
59310;SDS011;45078;51.654;21.250;2022-10-22T21:33:19;17.00;;;8.77;;
59310;SDS011;45078;51.654;21.250;2022-10-22T21:35:54;17.75;;;9.52;;
59310;SDS011;45078;51.654;21.250;2022-10-22T21:38:21;17.05;;;9.35;;
59310;SDS011;45078;51.654;21.250;2022-10-22T21:40:48;17.15;;;9.40;;
59310;SDS011;45078;51.654;21.250;2022-10-22T21:43:14;16.00;;;9.00;;
59310;SDS011;45078;51.654;21.250;2022-10-22T21:45:41;22.77;;;11.02;;
59310;SDS011;45078;51.654;21.250;2022-10-22T21:48:07;15.77;;;9.73;;
59310;SDS011;45078;51.654;21.250;2022-10-22T21:50:37;16.63;;;9.43;;
59310;SDS011;45078;51.654;21.250;2022-10-22T21:53:07;18.67;;;9.80;;
59310;SDS011;45078;51.654;21.250;2022-10-22T21:55:37;17.48;;;9.30;;
59310;SDS011;45078;51.654;21.250;2022-10-22T21:58:04;17.02;;;9.45;;
59310;SDS011;45078;51.654;21.250;2022-10-22T22:00:30;17.33;;;9.88;;
59310;SDS011;45078;51.654;21.250;2022-10-22T22:02:56;21.10;;;9.85;;
59310;SDS011;45078;51.654;21.250;2022-10-22T22:07:57;20.75;;;9.98;;
59310;SDS011;45078;51.654;21.250;2022-10-22T22:10:23;20.77;;;10.93;;
59310;SDS011;45078;51.654;21.250;2022-10-22T22:12:50;21.92;;;11.00;;
59310;SDS011;45078;51.654;21.250;2022-10-22T22:15:17;19.08;;;10.25;;
59310;SDS011;45078;51.654;21.250;2022-10-22T22:17:44;22.25;;;10.35;;
59310;SDS011;45078;51.654;21.250;2022-10-22T22:20:10;26.30;;;11.80;;
59310;SDS011;45078;51.654;21.250;2022-10-22T22:22:36;27.05;;;11.30;;
59310;SDS011;45078;51.654;21.250;2022-10-22T22:25:02;27.65;;;11.95;;
59310;SDS011;45078;51.654;21.250;2022-10-22T22:27:28;23.73;;;11.27;;
59310;SDS011;45078;51.654;21.250;2022-10-22T22:29:54;24.33;;;11.88;;
59310;SDS011;45078;51.654;21.250;2022-10-22T22:32:19;22.95;;;11.77;;
59310;SDS011;45078;51.654;21.250;2022-10-22T22:34:45;26.45;;;11.93;;
59310;SDS011;45078;51.654;21.250;2022-10-22T22:37:11;24.92;;;12.27;;
59310;SDS011;45078;51.654;21.250;2022-10-22T22:39:37;27.48;;;11.65;;
59310;SDS011;45078;51.654;21.250;2022-10-22T22:42:03;27.08;;;11.93;;
59310;SDS011;45078;51.654;21.250;2022-10-22T22:44:28;29.05;;;12.38;;
59310;SDS011;45078;51.654;21.250;2022-10-22T22:46:54;28.92;;;11.60;;
59310;SDS011;45078;51.654;21.250;2022-10-22T22:49:20;28.67;;;12.75;;
59310;SDS011;45078;51.654;21.250;2022-10-22T22:51:47;25.08;;;11.57;;
59310;SDS011;45078;51.654;21.250;2022-10-22T22:54:13;27.30;;;12.23;;
59310;SDS011;45078;51.654;21.250;2022-10-22T22:56:39;25.33;;;11.90;;
59310;SDS011;45078;51.654;21.250;2022-10-22T22:59:05;28.65;;;13.30;;
59310;SDS011;45078;51.654;21.250;2022-10-22T23:01:32;27.65;;;12.70;;
59310;SDS011;45078;51.654;21.250;2022-10-22T23:04:09;32.10;;;12.55;;
59310;SDS011;45078;51.654;21.250;2022-10-22T23:06:36;28.70;;;12.38;;
59310;SDS011;45078;51.654;21.250;2022-10-22T23:09:03;31.50;;;13.55;;
59310;SDS011;45078;51.654;21.250;2022-10-22T23:11:31;32.92;;;13.30;;
59310;SDS011;45078;51.654;21.250;2022-10-22T23:13:58;29.90;;;12.27;;
59310;SDS011;45078;51.654;21.250;2022-10-22T23:16:27;27.92;;;12.77;;
59310;SDS011;45078;51.654;21.250;2022-10-22T23:18:55;30.92;;;11.65;;
59310;SDS011;45078;51.654;21.250;2022-10-22T23:21:28;27.42;;;11.77;;
59310;SDS011;45078;51.654;21.250;2022-10-22T23:23:56;28.30;;;12.80;;
59310;SDS011;45078;51.654;21.250;2022-10-22T23:26:26;24.25;;;11.80;;
59310;SDS011;45078;51.654;21.250;2022-10-22T23:28:53;26.38;;;10.75;;
59310;SDS011;45078;51.654;21.250;2022-10-22T23:31:19;26.90;;;11.63;;
59310;SDS011;45078;51.654;21.250;2022-10-22T23:33:46;30.52;;;12.70;;
59310;SDS011;45078;51.654;21.250;2022-10-22T23:36:13;32.83;;;13.25;;
59310;SDS011;45078;51.654;21.250;2022-10-22T23:38:39;35.08;;;12.63;;
59310;SDS011;45078;51.654;21.250;2022-10-22T23:41:05;33.67;;;12.50;;
59310;SDS011;45078;51.654;21.250;2022-10-22T23:43:32;30.33;;;12.40;;
59310;SDS011;45078;51.654;21.250;2022-10-22T23:46:00;32.35;;;12.88;;
59310;SDS011;45078;51.654;21.250;2022-10-22T23:48:27;45.53;;;15.07;;
59310;SDS011;45078;51.654;21.250;2022-10-22T23:50:53;31.30;;;12.70;;
59310;SDS011;45078;51.654;21.250;2022-10-22T23:53:18;31.50;;;13.25;;
59310;SDS011;45078;51.654;21.250;2022-10-22T23:55:44;33.83;;;12.00;;
59310;SDS011;45078;51.654;21.250;2022-10-22T23:58:10;28.02;;;11.95;;
